sensor_id;sensor_type;location;lat;lon;timestamp;temperature;humidity
51837;DHT22;38941;53.254;6.600;2023-08-06T00:01:34;14.00;99.90
51837;DHT22;38941;53.254;6.600;2023-08-06T00:03:36;14.20;99.90
51837;DHT22;38941;53.254;6.600;2023-08-06T00:05:36;14.20;99.90
51837;DHT22;38941;53.254;6.600;2023-08-06T00:07:37;14.20;99.90
51837;DHT22;38941;53.254;6.600;2023-08-06T00:09:38;14.40;99.90
51837;DHT22;38941;53.254;6.600;2023-08-06T00:11:38;14.20;99.90
51837;DHT22;38941;53.254;6.600;2023-08-06T00:13:39;14.10;99.90
51837;DHT22;38941;53.254;6.600;2023-08-06T00:15:40;14.40;99.90
51837;DHT22;38941;53.254;6.600;2023-08-06T00:17:40;14.10;99.90
51837;DHT22;38941;53.254;6.600;2023-08-06T00:19:41;14.20;99.90
51837;DHT22;38941;53.254;6.600;2023-08-06T00:21:41;14.20;99.90
51837;DHT22;38941;53.254;6.600;2023-08-06T00:23:42;14.10;99.90
51837;DHT22;38941;53.254;6.600;2023-08-06T00:25:43;14.20;99.90
51837;DHT22;38941;53.254;6.600;2023-08-06T00:27:44;14.10;99.90
51837;DHT22;38941;53.254;6.600;2023-08-06T00:29:45;13.90;99.90
51837;DHT22;38941;53.254;6.600;2023-08-06T00:31:46;14.10;99.90
51837;DHT22;38941;53.254;6.600;2023-08-06T00:33:46;14.10;99.90
51837;DHT22;38941;53.254;6.600;2023-08-06T00:35:47;14.10;99.90
51837;DHT22;38941;53.254;6.600;2023-08-06T00:37:48;14.10;99.90
51837;DHT22;38941;53.254;6.600;2023-08-06T00:39:48;14.10;99.90
51837;DHT22;38941;53.254;6.600;2023-08-06T00:41:49;13.30;99.90
51837;DHT22;38941;53.254;6.600;2023-08-06T00:43:50;14.00;99.90
51837;DHT22;38941;53.254;6.600;2023-08-06T00:45:50;14.10;99.90
51837;DHT22;38941;53.254;6.600;2023-08-06T00:47:51;14.10;99.90
51837;DHT22;38941;53.254;6.600;2023-08-06T00:49:52;14.10;99.90
51837;DHT22;38941;53.254;6.600;2023-08-06T00:51:55;14.10;99.90
51837;DHT22;38941;53.254;6.600;2023-08-06T00:53:56;14.00;99.90
51837;DHT22;38941;53.254;6.600;2023-08-06T00:55:58;14.10;99.90
51837;DHT22;38941;53.254;6.600;2023-08-06T00:57:59;14.00;99.90
51837;DHT22;38941;53.254;6.600;2023-08-06T01:00:00;14.10;99.90
51837;DHT22;38941;53.254;6.600;2023-08-06T01:02:02;14.00;99.90
51837;DHT22;38941;53.254;6.600;2023-08-06T01:04:02;14.10;99.90
51837;DHT22;38941;53.254;6.600;2023-08-06T01:06:03;14.10;99.90
51837;DHT22;38941;53.254;6.600;2023-08-06T01:13:06;14.00;99.90
51837;DHT22;38941;53.254;6.600;2023-08-06T01:15:17;14.00;99.90
51837;DHT22;38941;53.254;6.600;2023-08-06T01:17:20;14.00;99.90
51837;DHT22;38941;53.254;6.600;2023-08-06T01:19:21;14.00;99.90
51837;DHT22;38941;53.254;6.600;2023-08-06T01:21:22;13.90;99.90
51837;DHT22;38941;53.254;6.600;2023-08-06T01:23:23;14.30;99.90
51837;DHT22;38941;53.254;6.600;2023-08-06T01:25:34;14.10;99.90
51837;DHT22;38941;53.254;6.600;2023-08-06T01:27:53;14.10;99.90
51837;DHT22;38941;53.254;6.600;2023-08-06T01:30:03;14.30;99.90
51837;DHT22;38941;53.254;6.600;2023-08-06T01:32:08;14.10;99.90
51837;DHT22;38941;53.254;6.600;2023-08-06T01:34:17;14.20;99.90
51837;DHT22;38941;53.254;6.600;2023-08-06T01:36:19;14.10;99.90
51837;DHT22;38941;53.254;6.600;2023-08-06T01:38:21;14.10;99.90
51837;DHT22;38941;53.254;6.600;2023-08-06T01:40:22;14.00;99.90
51837;DHT22;38941;53.254;6.600;2023-08-06T01:42:22;14.00;99.90
51837;DHT22;38941;53.254;6.600;2023-08-06T01:44:23;14.00;99.90
51837;DHT22;38941;53.254;6.600;2023-08-06T01:46:24;14.00;99.90
51837;DHT22;38941;53.254;6.600;2023-08-06T01:48:24;14.10;99.90
51837;DHT22;38941;53.254;6.600;2023-08-06T01:50:25;14.00;99.90
51837;DHT22;38941;53.254;6.600;2023-08-06T01:52:26;14.10;99.90
51837;DHT22;38941;53.254;6.600;2023-08-06T01:54:26;14.00;99.90
51837;DHT22;38941;53.254;6.600;2023-08-06T01:56:28;14.00;99.90
51837;DHT22;38941;53.254;6.600;2023-08-06T01:58:28;14.00;99.90
51837;DHT22;38941;53.254;6.600;2023-08-06T02:00:29;14.00;99.90
51837;DHT22;38941;53.254;6.600;2023-08-06T02:02:30;14.10;99.90
51837;DHT22;38941;53.254;6.600;2023-08-06T02:04:30;14.10;99.90
51837;DHT22;38941;53.254;6.600;2023-08-06T02:06:31;14.10;99.90
51837;DHT22;38941;53.254;6.600;2023-08-06T02:08:32;14.10;99.90
51837;DHT22;38941;53.254;6.600;2023-08-06T02:10:33;14.10;99.90
51837;DHT22;38941;53.254;6.600;2023-08-06T02:12:33;14.10;99.90
51837;DHT22;38941;53.254;6.600;2023-08-06T02:14:34;14.00;99.90
51837;DHT22;38941;53.254;6.600;2023-08-06T02:16:35;14.10;99.90
51837;DHT22;38941;53.254;6.600;2023-08-06T02:18:36;14.10;99.90
51837;DHT22;38941;53.254;6.600;2023-08-06T02:20:36;14.10;99.90
51837;DHT22;38941;53.254;6.600;2023-08-06T02:22:37;14.10;99.90
51837;DHT22;38941;53.254;6.600;2023-08-06T02:24:39;14.20;99.90
51837;DHT22;38941;53.254;6.600;2023-08-06T02:26:39;13.90;99.90
51837;DHT22;38941;53.254;6.600;2023-08-06T02:28:40;14.10;99.90
51837;DHT22;38941;53.254;6.600;2023-08-06T02:30:50;14.00;99.90
51837;DHT22;38941;53.254;6.600;2023-08-06T02:32:50;14.00;99.90
51837;DHT22;38941;53.254;6.600;2023-08-06T02:34:51;14.00;99.90
51837;DHT22;38941;53.254;6.600;2023-08-06T02:36:52;14.10;99.90
51837;DHT22;38941;53.254;6.600;2023-08-06T02:38:52;14.10;99.90
51837;DHT22;38941;53.254;6.600;2023-08-06T02:40:53;14.10;99.90
51837;DHT22;38941;53.254;6.600;2023-08-06T02:42:54;14.20;99.90
51837;DHT22;38941;53.254;6.600;2023-08-06T02:44:54;13.90;99.90
51837;DHT22;38941;53.254;6.600;2023-08-06T02:46:55;14.20;99.90
51837;DHT22;38941;53.254;6.600;2023-08-06T02:48:56;14.10;99.90
51837;DHT22;38941;53.254;6.600;2023-08-06T02:50:58;14.10;99.90
51837;DHT22;38941;53.254;6.600;2023-08-06T02:52:59;14.10;99.90
51837;DHT22;38941;53.254;6.600;2023-08-06T02:55:00;14.10;99.90
51837;DHT22;38941;53.254;6.600;2023-08-06T02:57:00;14.10;99.90
51837;DHT22;38941;53.254;6.600;2023-08-06T02:59:01;14.20;99.90
51837;DHT22;38941;53.254;6.600;2023-08-06T03:01:06;14.10;99.90
51837;DHT22;38941;53.254;6.600;2023-08-06T03:03:07;14.10;99.90
51837;DHT22;38941;53.254;6.600;2023-08-06T03:05:08;14.40;99.90
51837;DHT22;38941;53.254;6.600;2023-08-06T03:07:08;14.10;99.90
51837;DHT22;38941;53.254;6.600;2023-08-06T03:09:09;14.10;99.90
51837;DHT22;38941;53.254;6.600;2023-08-06T03:11:10;14.10;99.90
51837;DHT22;38941;53.254;6.600;2023-08-06T03:13:10;14.10;99.90
51837;DHT22;38941;53.254;6.600;2023-08-06T03:15:11;14.10;99.90
51837;DHT22;38941;53.254;6.600;2023-08-06T03:17:12;14.10;99.90
51837;DHT22;38941;53.254;6.600;2023-08-06T03:19:13;14.20;99.90
51837;DHT22;38941;53.254;6.600;2023-08-06T03:21:13;14.10;99.90
51837;DHT22;38941;53.254;6.600;2023-08-06T03:23:14;14.10;99.90
51837;DHT22;38941;53.254;6.600;2023-08-06T03:25:14;14.10;99.90
51837;DHT22;38941;53.254;6.600;2023-08-06T03:27:15;14.10;99.90
51837;DHT22;38941;53.254;6.600;2023-08-06T03:29:16;14.20;99.90
51837;DHT22;38941;53.254;6.600;2023-08-06T03:31:17;14.10;99.90
51837;DHT22;38941;53.254;6.600;2023-08-06T03:33:18;14.20;99.90
51837;DHT22;38941;53.254;6.600;2023-08-06T03:35:18;14.20;99.90
51837;DHT22;38941;53.254;6.600;2023-08-06T03:37:19;14.20;99.90
51837;DHT22;38941;53.254;6.600;2023-08-06T03:39:20;14.20;99.90
51837;DHT22;38941;53.254;6.600;2023-08-06T03:41:20;14.30;99.90
51837;DHT22;38941;53.254;6.600;2023-08-06T03:43:21;14.10;99.90
51837;DHT22;38941;53.254;6.600;2023-08-06T03:45:22;14.20;99.90
51837;DHT22;38941;53.254;6.600;2023-08-06T03:47:22;14.10;99.90
51837;DHT22;38941;53.254;6.600;2023-08-06T03:49:23;14.10;99.90
51837;DHT22;38941;53.254;6.600;2023-08-06T03:51:24;14.10;99.90
51837;DHT22;38941;53.254;6.600;2023-08-06T03:53:25;14.20;99.90
51837;DHT22;38941;53.254;6.600;2023-08-06T03:55:26;14.10;99.90
51837;DHT22;38941;53.254;6.600;2023-08-06T03:57:26;14.10;99.90
51837;DHT22;38941;53.254;6.600;2023-08-06T03:59:27;14.10;99.90
51837;DHT22;38941;53.254;6.600;2023-08-06T04:01:28;14.20;99.90
51837;DHT22;38941;53.254;6.600;2023-08-06T04:03:29;14.10;99.90
51837;DHT22;38941;53.254;6.600;2023-08-06T04:05:31;14.20;99.90
51837;DHT22;38941;53.254;6.600;2023-08-06T04:07:33;14.00;99.90
51837;DHT22;38941;53.254;6.600;2023-08-06T04:09:33;14.20;99.90
51837;DHT22;38941;53.254;6.600;2023-08-06T04:11:34;14.20;99.90
51837;DHT22;38941;53.254;6.600;2023-08-06T04:13:34;14.20;99.90
51837;DHT22;38941;53.254;6.600;2023-08-06T04:15:35;14.20;99.90
51837;DHT22;38941;53.254;6.600;2023-08-06T04:17:36;14.20;99.90
51837;DHT22;38941;53.254;6.600;2023-08-06T04:19:37;14.10;99.90
51837;DHT22;38941;53.254;6.600;2023-08-06T04:21:38;14.20;99.90
51837;DHT22;38941;53.254;6.600;2023-08-06T04:23:39;14.20;99.90
51837;DHT22;38941;53.254;6.600;2023-08-06T04:25:39;14.20;99.90
51837;DHT22;38941;53.254;6.600;2023-08-06T04:27:40;14.40;99.90
51837;DHT22;38941;53.254;6.600;2023-08-06T04:29:42;14.20;99.90
51837;DHT22;38941;53.254;6.600;2023-08-06T04:31:43;14.20;99.90
51837;DHT22;38941;53.254;6.600;2023-08-06T04:33:43;14.20;99.90
51837;DHT22;38941;53.254;6.600;2023-08-06T04:35:44;14.10;99.90
51837;DHT22;38941;53.254;6.600;2023-08-06T04:37:45;14.20;99.90
51837;DHT22;38941;53.254;6.600;2023-08-06T04:39:45;14.20;99.90
51837;DHT22;38941;53.254;6.600;2023-08-06T04:41:47;14.20;99.90
51837;DHT22;38941;53.254;6.600;2023-08-06T04:43:48;14.20;99.90
51837;DHT22;38941;53.254;6.600;2023-08-06T04:45:51;14.20;99.90
51837;DHT22;38941;53.254;6.600;2023-08-06T04:47:52;14.20;99.90
51837;DHT22;38941;53.254;6.600;2023-08-06T04:49:53;14.20;99.90
51837;DHT22;38941;53.254;6.600;2023-08-06T04:51:54;14.20;99.90
51837;DHT22;38941;53.254;6.600;2023-08-06T04:53:57;14.20;99.90
51837;DHT22;38941;53.254;6.600;2023-08-06T04:55:57;14.20;99.90
51837;DHT22;38941;53.254;6.600;2023-08-06T04:57:58;14.20;99.90
51837;DHT22;38941;53.254;6.600;2023-08-06T04:59:59;14.20;99.90
51837;DHT22;38941;53.254;6.600;2023-08-06T05:01:59;14.20;99.90
51837;DHT22;38941;53.254;6.600;2023-08-06T05:04:00;14.10;99.90
51837;DHT22;38941;53.254;6.600;2023-08-06T05:06:00;14.20;99.90
51837;DHT22;38941;53.254;6.600;2023-08-06T05:08:01;14.20;99.90
51837;DHT22;38941;53.254;6.600;2023-08-06T05:10:02;14.20;99.90
51837;DHT22;38941;53.254;6.600;2023-08-06T05:12:05;14.20;99.90
51837;DHT22;38941;53.254;6.600;2023-08-06T05:14:05;14.20;99.90
51837;DHT22;38941;53.254;6.600;2023-08-06T05:16:06;14.20;99.90
51837;DHT22;38941;53.254;6.600;2023-08-06T05:18:07;14.20;99.90
51837;DHT22;38941;53.254;6.600;2023-08-06T05:20:08;14.20;99.90
51837;DHT22;38941;53.254;6.600;2023-08-06T05:22:08;14.20;99.90
51837;DHT22;38941;53.254;6.600;2023-08-06T05:24:09;14.20;99.90
51837;DHT22;38941;53.254;6.600;2023-08-06T05:26:10;14.00;99.90
51837;DHT22;38941;53.254;6.600;2023-08-06T05:28:10;14.20;99.90
51837;DHT22;38941;53.254;6.600;2023-08-06T05:30:11;14.20;99.90
51837;DHT22;38941;53.254;6.600;2023-08-06T05:32:12;14.20;99.90
51837;DHT22;38941;53.254;6.600;2023-08-06T05:34:12;14.60;99.90
51837;DHT22;38941;53.254;6.600;2023-08-06T05:36:13;14.50;99.90
51837;DHT22;38941;53.254;6.600;2023-08-06T05:38:14;14.30;99.90
51837;DHT22;38941;53.254;6.600;2023-08-06T05:40:14;14.30;99.90
51837;DHT22;38941;53.254;6.600;2023-08-06T05:42:15;14.40;99.90
51837;DHT22;38941;53.254;6.600;2023-08-06T05:44:16;14.40;99.90
51837;DHT22;38941;53.254;6.600;2023-08-06T05:46:17;14.50;99.90
51837;DHT22;38941;53.254;6.600;2023-08-06T05:48:17;14.50;99.90
51837;DHT22;38941;53.254;6.600;2023-08-06T05:50:18;14.40;99.90
51837;DHT22;38941;53.254;6.600;2023-08-06T05:52:18;14.80;99.90
51837;DHT22;38941;53.254;6.600;2023-08-06T05:54:19;15.10;99.90
51837;DHT22;38941;53.254;6.600;2023-08-06T05:56:20;14.90;99.90
51837;DHT22;38941;53.254;6.600;2023-08-06T05:58:21;15.10;99.90
51837;DHT22;38941;53.254;6.600;2023-08-06T06:00:22;15.20;99.90
51837;DHT22;38941;53.254;6.600;2023-08-06T06:02:23;15.20;99.90
51837;DHT22;38941;53.254;6.600;2023-08-06T06:04:24;15.50;99.90
51837;DHT22;38941;53.254;6.600;2023-08-06T06:06:25;15.30;99.90
51837;DHT22;38941;53.254;6.600;2023-08-06T06:08:25;15.40;99.90
51837;DHT22;38941;53.254;6.600;2023-08-06T06:10:26;15.40;99.90
51837;DHT22;38941;53.254;6.600;2023-08-06T06:12:27;15.40;99.90
51837;DHT22;38941;53.254;6.600;2023-08-06T06:14:27;15.50;99.90
51837;DHT22;38941;53.254;6.600;2023-08-06T06:16:28;15.50;99.90
51837;DHT22;38941;53.254;6.600;2023-08-06T06:18:28;15.50;99.90
51837;DHT22;38941;53.254;6.600;2023-08-06T06:20:32;15.90;99.90
51837;DHT22;38941;53.254;6.600;2023-08-06T06:22:33;15.60;99.90
51837;DHT22;38941;53.254;6.600;2023-08-06T06:24:34;15.60;99.90
51837;DHT22;38941;53.254;6.600;2023-08-06T06:26:34;15.70;99.90
51837;DHT22;38941;53.254;6.600;2023-08-06T06:28:35;15.70;99.90
51837;DHT22;38941;53.254;6.600;2023-08-06T06:30:36;15.80;99.90
51837;DHT22;38941;53.254;6.600;2023-08-06T06:32:36;15.80;99.90
51837;DHT22;38941;53.254;6.600;2023-08-06T06:34:37;15.90;99.90
51837;DHT22;38941;53.254;6.600;2023-08-06T06:36:38;15.90;99.90
51837;DHT22;38941;53.254;6.600;2023-08-06T06:38:38;15.90;99.90
51837;DHT22;38941;53.254;6.600;2023-08-06T06:40:40;16.00;99.90
51837;DHT22;38941;53.254;6.600;2023-08-06T06:42:40;16.00;99.90
51837;DHT22;38941;53.254;6.600;2023-08-06T06:44:41;16.00;99.90
51837;DHT22;38941;53.254;6.600;2023-08-06T06:46:42;16.10;99.90
51837;DHT22;38941;53.254;6.600;2023-08-06T06:48:43;16.10;99.90
51837;DHT22;38941;53.254;6.600;2023-08-06T06:50:47;16.20;99.90
51837;DHT22;38941;53.254;6.600;2023-08-06T06:52:48;16.20;99.90
51837;DHT22;38941;53.254;6.600;2023-08-06T06:54:49;16.30;99.90
51837;DHT22;38941;53.254;6.600;2023-08-06T06:56:49;16.40;99.90
51837;DHT22;38941;53.254;6.600;2023-08-06T06:58:50;16.40;99.90
51837;DHT22;38941;53.254;6.600;2023-08-06T07:00:51;16.50;99.90
51837;DHT22;38941;53.254;6.600;2023-08-06T07:02:51;16.50;99.90
51837;DHT22;38941;53.254;6.600;2023-08-06T07:04:53;16.60;99.90
51837;DHT22;38941;53.254;6.600;2023-08-06T07:06:53;16.60;99.90
51837;DHT22;38941;53.254;6.600;2023-08-06T07:08:54;16.80;99.90
51837;DHT22;38941;53.254;6.600;2023-08-06T07:11:05;16.80;99.90
51837;DHT22;38941;53.254;6.600;2023-08-06T07:13:06;17.00;99.90
51837;DHT22;38941;53.254;6.600;2023-08-06T07:15:06;17.00;99.90
51837;DHT22;38941;53.254;6.600;2023-08-06T07:17:07;17.10;99.90
51837;DHT22;38941;53.254;6.600;2023-08-06T07:19:08;17.10;99.90
51837;DHT22;38941;53.254;6.600;2023-08-06T07:21:08;17.20;99.90
51837;DHT22;38941;53.254;6.600;2023-08-06T07:23:09;17.20;99.90
51837;DHT22;38941;53.254;6.600;2023-08-06T07:25:10;17.20;99.90
51837;DHT22;38941;53.254;6.600;2023-08-06T07:27:10;17.30;99.90
51837;DHT22;38941;53.254;6.600;2023-08-06T07:29:11;17.30;99.90
51837;DHT22;38941;53.254;6.600;2023-08-06T07:31:12;17.30;99.90
51837;DHT22;38941;53.254;6.600;2023-08-06T07:33:12;17.40;99.90
51837;DHT22;38941;53.254;6.600;2023-08-06T07:35:13;17.40;99.90
51837;DHT22;38941;53.254;6.600;2023-08-06T07:37:14;17.50;99.90
51837;DHT22;38941;53.254;6.600;2023-08-06T07:39:15;17.60;99.90
51837;DHT22;38941;53.254;6.600;2023-08-06T07:41:17;17.70;99.90
51837;DHT22;38941;53.254;6.600;2023-08-06T07:43:18;17.90;99.90
51837;DHT22;38941;53.254;6.600;2023-08-06T07:45:19;18.20;99.90
51837;DHT22;38941;53.254;6.600;2023-08-06T07:47:20;18.40;99.90
51837;DHT22;38941;53.254;6.600;2023-08-06T07:49:21;18.60;99.90
51837;DHT22;38941;53.254;6.600;2023-08-06T07:51:22;18.80;99.90
51837;DHT22;38941;53.254;6.600;2023-08-06T07:53:24;18.90;99.90
51837;DHT22;38941;53.254;6.600;2023-08-06T07:55:27;18.90;99.90
51837;DHT22;38941;53.254;6.600;2023-08-06T07:57:27;18.90;99.90
51837;DHT22;38941;53.254;6.600;2023-08-06T07:59:28;18.90;99.90
51837;DHT22;38941;53.254;6.600;2023-08-06T08:01:29;18.80;99.90
51837;DHT22;38941;53.254;6.600;2023-08-06T08:03:30;18.80;99.90
51837;DHT22;38941;53.254;6.600;2023-08-06T08:05:31;18.80;99.90
51837;DHT22;38941;53.254;6.600;2023-08-06T08:07:31;19.00;99.90
51837;DHT22;38941;53.254;6.600;2023-08-06T08:09:32;19.00;99.90
51837;DHT22;38941;53.254;6.600;2023-08-06T08:11:34;19.20;99.90
51837;DHT22;38941;53.254;6.600;2023-08-06T08:13:35;19.20;99.90
51837;DHT22;38941;53.254;6.600;2023-08-06T08:15:36;19.30;99.90
51837;DHT22;38941;53.254;6.600;2023-08-06T08:17:36;19.40;99.90
51837;DHT22;38941;53.254;6.600;2023-08-06T08:19:37;19.50;99.90
51837;DHT22;38941;53.254;6.600;2023-08-06T08:21:38;19.50;99.90
51837;DHT22;38941;53.254;6.600;2023-08-06T08:23:38;19.50;99.90
51837;DHT22;38941;53.254;6.600;2023-08-06T08:25:39;19.70;99.90
51837;DHT22;38941;53.254;6.600;2023-08-06T08:27:40;19.90;99.90
51837;DHT22;38941;53.254;6.600;2023-08-06T08:29:41;20.10;99.90
51837;DHT22;38941;53.254;6.600;2023-08-06T08:31:41;20.30;99.90
51837;DHT22;38941;53.254;6.600;2023-08-06T08:33:42;20.40;99.90
51837;DHT22;38941;53.254;6.600;2023-08-06T08:35:42;20.60;99.90
51837;DHT22;38941;53.254;6.600;2023-08-06T08:37:43;20.70;99.90
51837;DHT22;38941;53.254;6.600;2023-08-06T08:39:44;20.80;99.90
51837;DHT22;38941;53.254;6.600;2023-08-06T08:41:45;20.80;99.90
51837;DHT22;38941;53.254;6.600;2023-08-06T08:43:48;20.90;99.90
51837;DHT22;38941;53.254;6.600;2023-08-06T08:45:51;20.80;99.90
51837;DHT22;38941;53.254;6.600;2023-08-06T08:47:51;20.80;99.90
51837;DHT22;38941;53.254;6.600;2023-08-06T08:49:54;20.80;99.90
51837;DHT22;38941;53.254;6.600;2023-08-06T08:51:56;20.80;99.90
51837;DHT22;38941;53.254;6.600;2023-08-06T08:53:57;20.90;99.90
51837;DHT22;38941;53.254;6.600;2023-08-06T08:55:58;21.00;99.90
51837;DHT22;38941;53.254;6.600;2023-08-06T08:57:59;21.10;99.90
51837;DHT22;38941;53.254;6.600;2023-08-06T08:59:59;21.20;99.90
51837;DHT22;38941;53.254;6.600;2023-08-06T09:02:03;21.20;99.90
51837;DHT22;38941;53.254;6.600;2023-08-06T09:04:05;21.30;99.90
51837;DHT22;38941;53.254;6.600;2023-08-06T09:06:07;21.40;99.90
51837;DHT22;38941;53.254;6.600;2023-08-06T09:08:12;21.70;99.90
51837;DHT22;38941;53.254;6.600;2023-08-06T09:10:17;21.80;99.90
51837;DHT22;38941;53.254;6.600;2023-08-06T09:12:19;21.90;99.90
51837;DHT22;38941;53.254;6.600;2023-08-06T09:14:20;22.10;99.90
51837;DHT22;38941;53.254;6.600;2023-08-06T09:16:20;22.20;99.90
51837;DHT22;38941;53.254;6.600;2023-08-06T09:18:29;22.30;99.90
51837;DHT22;38941;53.254;6.600;2023-08-06T09:20:29;22.40;99.90
51837;DHT22;38941;53.254;6.600;2023-08-06T09:22:34;22.50;99.90
51837;DHT22;38941;53.254;6.600;2023-08-06T09:24:38;22.60;99.90
51837;DHT22;38941;53.254;6.600;2023-08-06T09:26:40;22.70;99.90
51837;DHT22;38941;53.254;6.600;2023-08-06T09:28:41;22.80;99.90
51837;DHT22;38941;53.254;6.600;2023-08-06T09:30:43;23.00;99.90
51837;DHT22;38941;53.254;6.600;2023-08-06T09:32:49;23.10;99.90
51837;DHT22;38941;53.254;6.600;2023-08-06T09:34:56;23.20;99.90
51837;DHT22;38941;53.254;6.600;2023-08-06T09:36:57;23.30;99.90
51837;DHT22;38941;53.254;6.600;2023-08-06T09:38:57;23.30;99.90
51837;DHT22;38941;53.254;6.600;2023-08-06T09:40:58;23.40;99.90
51837;DHT22;38941;53.254;6.600;2023-08-06T09:42:59;23.40;99.90
51837;DHT22;38941;53.254;6.600;2023-08-06T09:45:06;23.40;99.90
51837;DHT22;38941;53.254;6.600;2023-08-06T09:47:07;23.40;99.90
51837;DHT22;38941;53.254;6.600;2023-08-06T09:49:08;23.40;99.90
51837;DHT22;38941;53.254;6.600;2023-08-06T09:51:11;23.50;99.90
51837;DHT22;38941;53.254;6.600;2023-08-06T09:53:13;23.50;99.90
51837;DHT22;38941;53.254;6.600;2023-08-06T09:55:14;23.60;99.90
51837;DHT22;38941;53.254;6.600;2023-08-06T09:57:15;23.60;99.90
51837;DHT22;38941;53.254;6.600;2023-08-06T09:59:19;23.60;99.90
51837;DHT22;38941;53.254;6.600;2023-08-06T10:01:21;23.60;99.90
51837;DHT22;38941;53.254;6.600;2023-08-06T10:03:22;23.70;99.90
51837;DHT22;38941;53.254;6.600;2023-08-06T10:05:24;23.80;99.90
51837;DHT22;38941;53.254;6.600;2023-08-06T10:07:25;23.70;99.90
51837;DHT22;38941;53.254;6.600;2023-08-06T10:09:26;23.80;99.90
51837;DHT22;38941;53.254;6.600;2023-08-06T10:11:28;23.90;99.90
51837;DHT22;38941;53.254;6.600;2023-08-06T10:13:30;24.00;99.90
51837;DHT22;38941;53.254;6.600;2023-08-06T10:15:32;24.10;99.90
51837;DHT22;38941;53.254;6.600;2023-08-06T10:17:33;24.20;99.90
51837;DHT22;38941;53.254;6.600;2023-08-06T10:19:34;24.10;99.90
51837;DHT22;38941;53.254;6.600;2023-08-06T10:21:37;24.60;99.90
51837;DHT22;38941;53.254;6.600;2023-08-06T10:23:40;24.80;99.90
51837;DHT22;38941;53.254;6.600;2023-08-06T10:25:42;24.90;99.90
51837;DHT22;38941;53.254;6.600;2023-08-06T10:29:49;24.90;99.90
51837;DHT22;38941;53.254;6.600;2023-08-06T10:31:54;24.90;99.90
51837;DHT22;38941;53.254;6.600;2023-08-06T10:33:57;25.00;99.90
51837;DHT22;38941;53.254;6.600;2023-08-06T10:36:01;25.10;99.90
51837;DHT22;38941;53.254;6.600;2023-08-06T10:38:16;25.20;99.90
51837;DHT22;38941;53.254;6.600;2023-08-06T10:40:20;25.30;99.90
51837;DHT22;38941;53.254;6.600;2023-08-06T10:42:28;25.40;99.90
51837;DHT22;38941;53.254;6.600;2023-08-06T10:44:29;25.30;99.90
51837;DHT22;38941;53.254;6.600;2023-08-06T10:46:30;25.30;99.90
51837;DHT22;38941;53.254;6.600;2023-08-06T10:48:35;25.30;99.90
51837;DHT22;38941;53.254;6.600;2023-08-06T10:50:36;25.20;99.90
51837;DHT22;38941;53.254;6.600;2023-08-06T10:52:37;25.40;99.90
51837;DHT22;38941;53.254;6.600;2023-08-06T10:54:38;25.60;99.90
51837;DHT22;38941;53.254;6.600;2023-08-06T10:56:40;25.70;99.90
51837;DHT22;38941;53.254;6.600;2023-08-06T10:58:43;25.80;99.90
51837;DHT22;38941;53.254;6.600;2023-08-06T11:00:44;25.80;99.90
51837;DHT22;38941;53.254;6.600;2023-08-06T11:02:47;25.90;99.90
51837;DHT22;38941;53.254;6.600;2023-08-06T11:04:49;26.00;99.90
51837;DHT22;38941;53.254;6.600;2023-08-06T11:06:53;26.10;99.90
51837;DHT22;38941;53.254;6.600;2023-08-06T11:08:54;26.20;99.90
51837;DHT22;38941;53.254;6.600;2023-08-06T11:10:55;26.20;99.90
51837;DHT22;38941;53.254;6.600;2023-08-06T11:13:07;26.30;99.90
51837;DHT22;38941;53.254;6.600;2023-08-06T11:15:08;26.50;99.90
51837;DHT22;38941;53.254;6.600;2023-08-06T11:17:09;26.60;99.90
51837;DHT22;38941;53.254;6.600;2023-08-06T11:19:09;26.60;99.90
51837;DHT22;38941;53.254;6.600;2023-08-06T11:21:10;26.70;99.90
51837;DHT22;38941;53.254;6.600;2023-08-06T11:23:13;26.80;99.90
51837;DHT22;38941;53.254;6.600;2023-08-06T11:25:14;26.60;99.90
51837;DHT22;38941;53.254;6.600;2023-08-06T11:27:16;26.50;99.90
51837;DHT22;38941;53.254;6.600;2023-08-06T11:29:17;26.70;99.90
51837;DHT22;38941;53.254;6.600;2023-08-06T11:31:21;26.80;99.90
51837;DHT22;38941;53.254;6.600;2023-08-06T11:33:23;27.00;99.90
51837;DHT22;38941;53.254;6.600;2023-08-06T11:35:27;27.30;99.90
51837;DHT22;38941;53.254;6.600;2023-08-06T11:37:28;27.50;99.90
51837;DHT22;38941;53.254;6.600;2023-08-06T11:39:29;27.50;99.90
51837;DHT22;38941;53.254;6.600;2023-08-06T11:41:29;27.70;99.90
51837;DHT22;38941;53.254;6.600;2023-08-06T11:43:30;27.90;99.90
51837;DHT22;38941;53.254;6.600;2023-08-06T11:45:34;27.90;99.90
51837;DHT22;38941;53.254;6.600;2023-08-06T11:47:38;27.90;99.90
51837;DHT22;38941;53.254;6.600;2023-08-06T11:49:47;28.10;99.90
51837;DHT22;38941;53.254;6.600;2023-08-06T11:51:48;28.30;99.90
51837;DHT22;38941;53.254;6.600;2023-08-06T11:53:49;28.40;99.90
51837;DHT22;38941;53.254;6.600;2023-08-06T11:55:50;28.50;99.90
51837;DHT22;38941;53.254;6.600;2023-08-06T11:59:53;28.60;99.90
51837;DHT22;38941;53.254;6.600;2023-08-06T12:01:54;28.60;99.90
51837;DHT22;38941;53.254;6.600;2023-08-06T12:04:00;28.30;99.90
51837;DHT22;38941;53.254;6.600;2023-08-06T12:06:02;28.30;99.90
51837;DHT22;38941;53.254;6.600;2023-08-06T12:08:03;28.20;99.90
51837;DHT22;38941;53.254;6.600;2023-08-06T12:10:04;27.90;99.90
51837;DHT22;38941;53.254;6.600;2023-08-06T12:12:05;27.70;99.90
51837;DHT22;38941;53.254;6.600;2023-08-06T12:14:06;27.60;99.90
51837;DHT22;38941;53.254;6.600;2023-08-06T12:16:07;27.80;99.90
51837;DHT22;38941;53.254;6.600;2023-08-06T12:18:07;28.10;99.90
51837;DHT22;38941;53.254;6.600;2023-08-06T12:20:09;28.40;99.90
51837;DHT22;38941;53.254;6.600;2023-08-06T12:22:10;28.50;99.30
51837;DHT22;38941;53.254;6.600;2023-08-06T12:24:10;28.40;99.10
51837;DHT22;38941;53.254;6.600;2023-08-06T12:26:12;28.50;99.30
51837;DHT22;38941;53.254;6.600;2023-08-06T12:28:12;28.70;99.30
51837;DHT22;38941;53.254;6.600;2023-08-06T12:30:14;28.90;99.40
51837;DHT22;38941;53.254;6.600;2023-08-06T12:32:15;29.00;98.90
51837;DHT22;38941;53.254;6.600;2023-08-06T12:34:16;29.60;99.40
51837;DHT22;38941;53.254;6.600;2023-08-06T12:36:17;29.40;98.60
51837;DHT22;38941;53.254;6.600;2023-08-06T12:38:18;29.40;98.10
51837;DHT22;38941;53.254;6.600;2023-08-06T12:40:18;29.30;98.00
51837;DHT22;38941;53.254;6.600;2023-08-06T12:42:20;29.60;98.10
51837;DHT22;38941;53.254;6.600;2023-08-06T12:44:21;29.60;97.30
51837;DHT22;38941;53.254;6.600;2023-08-06T12:46:21;29.50;97.00
51837;DHT22;38941;53.254;6.600;2023-08-06T12:48:22;29.30;97.30
51837;DHT22;38941;53.254;6.600;2023-08-06T12:50:24;29.30;97.50
51837;DHT22;38941;53.254;6.600;2023-08-06T12:52:24;29.30;97.80
51837;DHT22;38941;53.254;6.600;2023-08-06T12:54:25;29.50;97.40
51837;DHT22;38941;53.254;6.600;2023-08-06T12:56:26;29.70;97.20